sensor_id;sensor_type;location;lat;lon;timestamp;pressure;altitude;pressure_sealevel;temperature;humidity
49297;BME280;35163;48.878;18.040;2023-02-26T00:01:23;97253.66;;;3.85;65.15
49297;BME280;35163;48.878;18.040;2023-02-26T00:03:56;97255.56;;;3.77;65.51
49297;BME280;35163;48.878;18.040;2023-02-26T00:06:23;97246.94;;;3.81;65.08
49297;BME280;35163;48.878;18.040;2023-02-26T00:08:51;97237.59;;;3.80;65.45
49297;BME280;35163;48.878;18.040;2023-02-26T00:11:20;97234.19;;;3.80;65.40
49297;BME280;35163;48.878;18.040;2023-02-26T00:13:47;97231.66;;;3.78;65.24
49297;BME280;35163;48.878;18.040;2023-02-26T00:16:23;97233.28;;;3.82;65.22
49297;BME280;35163;48.878;18.040;2023-02-26T00:18:51;97225.69;;;3.79;65.76
49297;BME280;35163;48.878;18.040;2023-02-26T00:21:20;97211.25;;;3.76;65.69
49297;BME280;35163;48.878;18.040;2023-02-26T00:23:47;97200.97;;;3.78;66.04
49297;BME280;35163;48.878;18.040;2023-02-26T00:26:14;97192.44;;;3.79;65.94
49297;BME280;35163;48.878;18.040;2023-02-26T00:28:41;97188.16;;;3.80;65.55
49297;BME280;35163;48.878;18.040;2023-02-26T00:31:08;97192.44;;;3.79;65.55
49297;BME280;35163;48.878;18.040;2023-02-26T00:33:36;97199.22;;;3.80;65.34
49297;BME280;35163;48.878;18.040;2023-02-26T00:36:18;97201.75;;;3.82;65.33
49297;BME280;35163;48.878;18.040;2023-02-26T00:38:56;97212.66;;;3.88;64.90
49297;BME280;35163;48.878;18.040;2023-02-26T00:41:28;97221.06;;;3.94;64.73
49297;BME280;35163;48.878;18.040;2023-02-26T00:43:55;97237.88;;;4.04;63.60
49297;BME280;35163;48.878;18.040;2023-02-26T00:52:01;97246.53;;;3.98;65.10
49297;BME280;35163;48.878;18.040;2023-02-26T00:54:31;97258.59;;;3.95;65.31
49297;BME280;35163;48.878;18.040;2023-02-26T00:56:58;97262.97;;;3.89;66.39
49297;BME280;35163;48.878;18.040;2023-02-26T00:59:25;97262.16;;;3.87;66.13
49297;BME280;35163;48.878;18.040;2023-02-26T01:01:52;97251.22;;;3.81;66.85
49297;BME280;35163;48.878;18.040;2023-02-26T01:04:21;97244.41;;;3.80;66.88
49297;BME280;35163;48.878;18.040;2023-02-26T01:06:53;97248.81;;;3.73;67.82
49297;BME280;35163;48.878;18.040;2023-02-26T01:09:33;97263.38;;;3.71;68.03
49297;BME280;35163;48.878;18.040;2023-02-26T01:12:07;97265.06;;;3.72;67.94
49297;BME280;35163;48.878;18.040;2023-02-26T01:14:35;97269.25;;;3.74;68.32
49297;BME280;35163;48.878;18.040;2023-02-26T01:17:16;97274.41;;;3.73;70.30
49297;BME280;35163;48.878;18.040;2023-02-26T01:19:56;97285.63;;;3.67;72.60
49297;BME280;35163;48.878;18.040;2023-02-26T01:25:17;97298.66;;;3.55;74.72
49297;BME280;35163;48.878;18.040;2023-02-26T01:27:46;97296.28;;;3.45;75.11
49297;BME280;35163;48.878;18.040;2023-02-26T01:30:13;97291.16;;;3.45;75.51
49297;BME280;35163;48.878;18.040;2023-02-26T01:35:50;97293.72;;;3.45;75.32
49297;BME280;35163;48.878;18.040;2023-02-26T01:41:14;97276.81;;;3.39;74.89
49297;BME280;35163;48.878;18.040;2023-02-26T01:46:56;97227.59;;;3.31;74.34
49297;BME280;35163;48.878;18.040;2023-02-26T01:49:25;97219.88;;;3.33;74.38
49297;BME280;35163;48.878;18.040;2023-02-26T01:54:23;97200.47;;;3.24;74.19
49297;BME280;35163;48.878;18.040;2023-02-26T01:56:55;97192.78;;;3.25;73.15
49297;BME280;35163;48.878;18.040;2023-02-26T01:59:23;97200.50;;;3.22;73.18
49297;BME280;35163;48.878;18.040;2023-02-26T02:01:55;97209.03;;;3.21;72.63
49297;BME280;35163;48.878;18.040;2023-02-26T02:04:23;97213.28;;;3.22;72.93
49297;BME280;35163;48.878;18.040;2023-02-26T02:06:50;97206.44;;;3.24;71.92
49297;BME280;35163;48.878;18.040;2023-02-26T02:09:17;97203.91;;;3.23;71.21
49297;BME280;35163;48.878;18.040;2023-02-26T02:12:24;97210.78;;;3.21;70.25
49297;BME280;35163;48.878;18.040;2023-02-26T02:15:18;97239.72;;;3.20;70.25
49297;BME280;35163;48.878;18.040;2023-02-26T02:23:32;97301.00;;;3.23;69.34
49297;BME280;35163;48.878;18.040;2023-02-26T02:29:19;97316.34;;;3.21;68.53
49297;BME280;35163;48.878;18.040;2023-02-26T02:31:51;97309.56;;;3.20;68.13
49297;BME280;35163;48.878;18.040;2023-02-26T02:34:31;97309.53;;;3.22;68.34
49297;BME280;35163;48.878;18.040;2023-02-26T02:37:01;97319.81;;;3.19;67.99
49297;BME280;35163;48.878;18.040;2023-02-26T02:39:28;97318.06;;;3.21;67.56
49297;BME280;35163;48.878;18.040;2023-02-26T02:42:05;97314.69;;;3.19;67.81
49297;BME280;35163;48.878;18.040;2023-02-26T02:44:33;97323.22;;;3.19;67.18
49297;BME280;35163;48.878;18.040;2023-02-26T02:47:01;97315.44;;;3.24;66.63
49297;BME280;35163;48.878;18.040;2023-02-26T02:49:38;97296.44;;;3.37;67.05
49297;BME280;35163;48.878;18.040;2023-02-26T02:52:18;97304.22;;;3.33;66.42
49297;BME280;35163;48.878;18.040;2023-02-26T02:54:48;97298.31;;;3.29;66.16
49297;BME280;35163;48.878;18.040;2023-02-26T02:57:24;97295.88;;;3.24;64.96
49297;BME280;35163;48.878;18.040;2023-02-26T02:59:56;97305.13;;;3.28;65.38
49297;BME280;35163;48.878;18.040;2023-02-26T03:05:06;97328.00;;;3.36;63.88
49297;BME280;35163;48.878;18.040;2023-02-26T03:07:33;97333.28;;;3.27;63.75
49297;BME280;35163;48.878;18.040;2023-02-26T03:10:01;97329.94;;;3.23;63.51
49297;BME280;35163;48.878;18.040;2023-02-26T03:12:31;97341.88;;;3.23;63.22
49297;BME280;35163;48.878;18.040;2023-02-26T03:14:58;97323.22;;;3.19;63.60
49297;BME280;35163;48.878;18.040;2023-02-26T03:17:36;97336.00;;;3.19;62.86
49297;BME280;35163;48.878;18.040;2023-02-26T03:25:03;97358.13;;;3.19;62.37
49297;BME280;35163;48.878;18.040;2023-02-26T03:30:16;97371.88;;;3.11;62.41
49297;BME280;35163;48.878;18.040;2023-02-26T03:32:48;97386.44;;;3.06;61.40
49297;BME280;35163;48.878;18.040;2023-02-26T03:35:20;97393.28;;;3.04;61.41
49297;BME280;35163;48.878;18.040;2023-02-26T03:37:54;97401.88;;;3.00;61.20
49297;BME280;35163;48.878;18.040;2023-02-26T03:40:29;97403.56;;;3.01;61.48
49297;BME280;35163;48.878;18.040;2023-02-26T03:45:52;97398.44;;;3.01;62.09
49297;BME280;35163;48.878;18.040;2023-02-26T03:48:24;97396.00;;;2.95;61.73
49297;BME280;35163;48.878;18.040;2023-02-26T03:50:57;97399.41;;;2.95;60.61
49297;BME280;35163;48.878;18.040;2023-02-26T03:53:30;97412.16;;;2.97;60.72
49297;BME280;35163;48.878;18.040;2023-02-26T03:56:15;97413.03;;;2.94;60.91
49297;BME280;35163;48.878;18.040;2023-02-26T03:58:43;97402.84;;;2.92;60.62
49297;BME280;35163;48.878;18.040;2023-02-26T04:01:16;97402.84;;;2.92;60.21
49297;BME280;35163;48.878;18.040;2023-02-26T04:03:50;97396.13;;;2.87;60.76
49297;BME280;35163;48.878;18.040;2023-02-26T04:06:19;97390.16;;;2.89;60.47
49297;BME280;35163;48.878;18.040;2023-02-26T04:08:46;97390.25;;;2.83;61.03
49297;BME280;35163;48.878;18.040;2023-02-26T04:11:16;97397.03;;;2.84;61.38
49297;BME280;35163;48.878;18.040;2023-02-26T04:13:44;97395.44;;;2.77;62.07
49297;BME280;35163;48.878;18.040;2023-02-26T04:16:12;97386.75;;;2.87;61.33
49297;BME280;35163;48.878;18.040;2023-02-26T04:18:39;97394.56;;;2.79;61.68
49297;BME280;35163;48.878;18.040;2023-02-26T04:21:10;97402.19;;;2.81;61.49
49297;BME280;35163;48.878;18.040;2023-02-26T04:23:36;97392.81;;;2.83;61.31
49297;BME280;35163;48.878;18.040;2023-02-26T04:26:03;97395.44;;;2.77;61.50
49297;BME280;35163;48.878;18.040;2023-02-26T04:28:30;97403.94;;;2.79;60.86
49297;BME280;35163;48.878;18.040;2023-02-26T04:30:56;97417.53;;;2.81;61.02
49297;BME280;35163;48.878;18.040;2023-02-26T04:33:23;97421.00;;;2.75;60.65
49297;BME280;35163;48.878;18.040;2023-02-26T04:35:50;97431.97;;;2.82;61.08
49297;BME280;35163;48.878;18.040;2023-02-26T04:38:16;97433.66;;;2.82;60.20
49297;BME280;35163;48.878;18.040;2023-02-26T04:40:43;97430.19;;;2.86;61.12
49297;BME280;35163;48.878;18.040;2023-02-26T04:43:09;97440.41;;;2.87;60.65
49297;BME280;35163;48.878;18.040;2023-02-26T04:45:36;97449.84;;;2.82;60.61
49297;BME280;35163;48.878;18.040;2023-02-26T04:48:02;97454.09;;;2.83;60.13
49297;BME280;35163;48.878;18.040;2023-02-26T04:50:29;97448.97;;;2.83;60.33
49297;BME280;35163;48.878;18.040;2023-02-26T04:52:55;97459.16;;;2.85;60.84
49297;BME280;35163;48.878;18.040;2023-02-26T04:55:22;97476.97;;;2.89;60.47
49297;BME280;35163;48.878;18.040;2023-02-26T04:57:49;97465.16;;;2.82;60.93
49297;BME280;35163;48.878;18.040;2023-02-26T05:00:15;97460.03;;;2.82;60.78
49297;BME280;35163;48.878;18.040;2023-02-26T05:02:42;97460.94;;;2.81;60.64
49297;BME280;35163;48.878;18.040;2023-02-26T05:05:09;97473.66;;;2.83;60.90
49297;BME280;35163;48.878;18.040;2023-02-26T05:07:36;97471.84;;;2.89;62.11
49297;BME280;35163;48.878;18.040;2023-02-26T05:10:05;97476.25;;;2.81;61.45
49297;BME280;35163;48.878;18.040;2023-02-26T05:12:32;97471.16;;;2.79;61.32
49297;BME280;35163;48.878;18.040;2023-02-26T05:14:58;97476.31;;;2.76;61.38
49297;BME280;35163;48.878;18.040;2023-02-26T05:17:25;97471.22;;;2.76;60.94
49297;BME280;35163;48.878;18.040;2023-02-26T05:19:52;97461.88;;;2.74;60.47
49297;BME280;35163;48.878;18.040;2023-02-26T05:22:18;97459.44;;;2.67;59.89
49297;BME280;35163;48.878;18.040;2023-02-26T05:24:45;97462.16;;;2.55;60.61
49297;BME280;35163;48.878;18.040;2023-02-26T05:27:12;97471.53;;;2.53;59.84
49297;BME280;35163;48.878;18.040;2023-02-26T05:29:39;97457.09;;;2.52;59.59
49297;BME280;35163;48.878;18.040;2023-02-26T05:32:07;97450.16;;;2.60;59.67
49297;BME280;35163;48.878;18.040;2023-02-26T05:34:34;97449.50;;;2.49;59.55
49297;BME280;35163;48.878;18.040;2023-02-26T05:37:00;97453.78;;;2.47;59.89
49297;BME280;35163;48.878;18.040;2023-02-26T05:39:27;97463.03;;;2.54;58.76
49297;BME280;35163;48.878;18.040;2023-02-26T05:41:54;97462.25;;;2.49;58.72
49297;BME280;35163;48.878;18.040;2023-02-26T05:44:22;97471.56;;;2.51;57.84
49297;BME280;35163;48.878;18.040;2023-02-26T05:46:48;97476.75;;;2.47;58.71
49297;BME280;35163;48.878;18.040;2023-02-26T05:49:15;97480.28;;;2.35;58.53
49297;BME280;35163;48.878;18.040;2023-02-26T05:51:42;97476.06;;;2.32;58.55
49297;BME280;35163;48.878;18.040;2023-02-26T05:54:09;97484.53;;;2.36;58.78
49297;BME280;35163;48.878;18.040;2023-02-26T05:56:36;97488.75;;;2.38;58.54
49297;BME280;35163;48.878;18.040;2023-02-26T05:59:02;97496.47;;;2.35;58.92
49297;BME280;35163;48.878;18.040;2023-02-26T06:01:29;97502.28;;;2.45;59.26
49297;BME280;35163;48.878;18.040;2023-02-26T06:03:56;97504.81;;;2.47;58.93
49297;BME280;35163;48.878;18.040;2023-02-26T06:06:22;97498.09;;;2.39;59.49
49297;BME280;35163;48.878;18.040;2023-02-26T06:08:51;97504.03;;;2.40;59.37
49297;BME280;35163;48.878;18.040;2023-02-26T06:11:17;97508.38;;;2.33;60.51
49297;BME280;35163;48.878;18.040;2023-02-26T06:13:44;97510.97;;;2.32;60.76
49297;BME280;35163;48.878;18.040;2023-02-26T06:16:11;97529.66;;;2.30;61.45
49297;BME280;35163;48.878;18.040;2023-02-26T06:18:37;97535.56;;;2.34;60.54
49297;BME280;35163;48.878;18.040;2023-02-26T06:21:04;97520.41;;;2.25;60.66
49297;BME280;35163;48.878;18.040;2023-02-26T06:23:31;97532.19;;;2.35;60.58
49297;BME280;35163;48.878;18.040;2023-02-26T06:25:57;97536.41;;;2.36;60.70
49297;BME280;35163;48.878;18.040;2023-02-26T06:28:25;97538.97;;;2.36;60.10
49297;BME280;35163;48.878;18.040;2023-02-26T06:30:52;97539.91;;;2.29;60.90
49297;BME280;35163;48.878;18.040;2023-02-26T06:33:19;97554.34;;;2.28;60.79
49297;BME280;35163;48.878;18.040;2023-02-26T06:35:46;97555.97;;;2.36;60.81
49297;BME280;35163;48.878;18.040;2023-02-26T06:38:13;97562.81;;;2.35;61.07
49297;BME280;35163;48.878;18.040;2023-02-26T06:40:40;97573.00;;;2.35;61.20
49297;BME280;35163;48.878;18.040;2023-02-26T06:43:06;97578.88;;;2.39;60.04
49297;BME280;35163;48.878;18.040;2023-02-26T06:45:33;97582.19;;;2.50;59.82
49297;BME280;35163;48.878;18.040;2023-02-26T06:48:00;97582.03;;;2.61;60.04
49297;BME280;35163;48.878;18.040;2023-02-26T06:50:27;97590.41;;;2.73;59.14
49297;BME280;35163;48.878;18.040;2023-02-26T06:52:54;97611.72;;;2.69;58.99
49297;BME280;35163;48.878;18.040;2023-02-26T06:55:20;97610.75;;;2.79;58.12
49297;BME280;35163;48.878;18.040;2023-02-26T06:57:47;97614.97;;;2.80;58.25
49297;BME280;35163;48.878;18.040;2023-02-26T07:00:14;97626.94;;;2.78;57.40
49297;BME280;35163;48.878;18.040;2023-02-26T07:02:41;97623.50;;;2.79;57.42
49297;BME280;35163;48.878;18.040;2023-02-26T07:05:08;97622.56;;;2.86;57.66
49297;BME280;35163;48.878;18.040;2023-02-26T07:07:34;97629.44;;;2.83;57.23
49297;BME280;35163;48.878;18.040;2023-02-26T07:10:01;97634.44;;;2.89;57.84
49297;BME280;35163;48.878;18.040;2023-02-26T07:12:28;97631.81;;;2.97;57.46
49297;BME280;35163;48.878;18.040;2023-02-26T07:14:54;97633.53;;;2.95;57.49
49297;BME280;35163;48.878;18.040;2023-02-26T07:17:21;97623.41;;;2.87;57.04
49297;BME280;35163;48.878;18.040;2023-02-26T07:19:50;97626.75;;;2.90;57.42
49297;BME280;35163;48.878;18.040;2023-02-26T07:22:18;97636.91;;;2.98;57.22
49297;BME280;35163;48.878;18.040;2023-02-26T07:24:47;97645.38;;;2.99;56.95
49297;BME280;35163;48.878;18.040;2023-02-26T07:27:15;97653.84;;;3.02;58.13
49297;BME280;35163;48.878;18.040;2023-02-26T07:29:41;97660.59;;;3.08;57.77
49297;BME280;35163;48.878;18.040;2023-02-26T07:32:08;97666.56;;;3.09;57.40
49297;BME280;35163;48.878;18.040;2023-02-26T07:34:35;97671.56;;;3.15;56.76
49297;BME280;35163;48.878;18.040;2023-02-26T07:37:01;97676.59;;;3.23;56.53
49297;BME280;35163;48.878;18.040;2023-02-26T07:39:28;97670.56;;;3.27;56.34
49297;BME280;35163;48.878;18.040;2023-02-26T07:41:54;97680.72;;;3.32;56.14
49297;BME280;35163;48.878;18.040;2023-02-26T07:44:21;97679.78;;;3.37;54.78
49297;BME280;35163;48.878;18.040;2023-02-26T07:46:48;97677.91;;;3.50;54.83
49297;BME280;35163;48.878;18.040;2023-02-26T07:49:15;97678.69;;;3.54;54.99
49297;BME280;35163;48.878;18.040;2023-02-26T07:51:42;97680.25;;;3.64;54.01
49297;BME280;35163;48.878;18.040;2023-02-26T07:54:11;97687.91;;;3.64;53.94
49297;BME280;35163;48.878;18.040;2023-02-26T07:56:39;97685.25;;;3.74;56.23
49297;BME280;35163;48.878;18.040;2023-02-26T07:59:06;97675.63;;;3.88;56.42
49297;BME280;35163;48.878;18.040;2023-02-26T08:01:33;97686.72;;;3.87;53.96
49297;BME280;35163;48.878;18.040;2023-02-26T08:04:00;97685.03;;;3.88;53.44
49297;BME280;35163;48.878;18.040;2023-02-26T08:06:27;97684.25;;;3.83;52.81
49297;BME280;35163;48.878;18.040;2023-02-26T08:08:54;97689.38;;;3.81;52.97
49297;BME280;35163;48.878;18.040;2023-02-26T08:11:21;97691.03;;;3.84;52.58
49297;BME280;35163;48.878;18.040;2023-02-26T08:13:48;97693.69;;;3.79;52.52
49297;BME280;35163;48.878;18.040;2023-02-26T08:16:14;97693.63;;;3.82;52.66
49297;BME280;35163;48.878;18.040;2023-02-26T08:18:41;97689.38;;;3.81;54.06
49297;BME280;35163;48.878;18.040;2023-02-26T08:21:08;97686.09;;;3.73;55.20
49297;BME280;35163;48.878;18.040;2023-02-26T08:23:34;97692.81;;;3.80;53.18
49297;BME280;35163;48.878;18.040;2023-02-26T08:26:03;97700.41;;;3.83;53.82
49297;BME280;35163;48.878;18.040;2023-02-26T08:28:31;97703.84;;;3.82;53.25
49297;BME280;35163;48.878;18.040;2023-02-26T08:30:59;97699.72;;;3.73;52.85
49297;BME280;35163;48.878;18.040;2023-02-26T08:33:27;97697.31;;;3.64;52.45
49297;BME280;35163;48.878;18.040;2023-02-26T08:35:54;97702.38;;;3.69;52.41
49297;BME280;35163;48.878;18.040;2023-02-26T08:38:25;97714.19;;;3.74;53.13
49297;BME280;35163;48.878;18.040;2023-02-26T08:40:53;97713.38;;;3.74;52.99
49297;BME280;35163;48.878;18.040;2023-02-26T08:43:20;97724.41;;;3.74;53.25
49297;BME280;35163;48.878;18.040;2023-02-26T08:45:47;97728.78;;;3.68;52.96
49297;BME280;35163;48.878;18.040;2023-02-26T08:48:14;97727.06;;;3.68;52.99
49297;BME280;35163;48.878;18.040;2023-02-26T08:50:40;97740.53;;;3.80;52.45
49297;BME280;35163;48.878;18.040;2023-02-26T08:53:07;97743.94;;;3.80;52.42
49297;BME280;35163;48.878;18.040;2023-02-26T08:55:33;97746.81;;;3.60;51.88
49297;BME280;35163;48.878;18.040;2023-02-26T08:58:00;97746.59;;;3.75;52.19
49297;BME280;35163;48.878;18.040;2023-02-26T09:00:27;97749.94;;;3.79;52.60
49297;BME280;35163;48.878;18.040;2023-02-26T09:02:54;97753.25;;;3.86;53.15
49297;BME280;35163;48.878;18.040;2023-02-26T09:05:22;97762.59;;;3.87;52.28
49297;BME280;35163;48.878;18.040;2023-02-26T09:07:50;97754.00;;;3.93;52.16
49297;BME280;35163;48.878;18.040;2023-02-26T09:10:16;97753.09;;;3.95;52.33
49297;BME280;35163;48.878;18.040;2023-02-26T09:12:43;97766.63;;;4.05;52.40
49297;BME280;35163;48.878;18.040;2023-02-26T09:15:11;97764.97;;;4.01;52.58
49297;BME280;35163;48.878;18.040;2023-02-26T09:17:38;97768.16;;;4.14;52.35
49297;BME280;35163;48.878;18.040;2023-02-26T09:20:05;97763.06;;;4.12;50.14
49297;BME280;35163;48.878;18.040;2023-02-26T09:22:32;97774.13;;;4.15;52.14
49297;BME280;35163;48.878;18.040;2023-02-26T09:24:59;97780.94;;;4.17;49.06
49297;BME280;35163;48.878;18.040;2023-02-26T09:27:26;97780.94;;;4.17;48.59
49297;BME280;35163;48.878;18.040;2023-02-26T09:29:52;97783.31;;;4.28;48.98
49297;BME280;35163;48.878;18.040;2023-02-26T09:32:19;97796.81;;;4.36;48.52
49297;BME280;35163;48.878;18.040;2023-02-26T09:34:46;97779.06;;;4.27;46.13
49297;BME280;35163;48.878;18.040;2023-02-26T09:37:13;97815.81;;;4.23;44.94
49297;BME280;35163;48.878;18.040;2023-02-26T09:39:39;97800.38;;;4.29;45.17
49297;BME280;35163;48.878;18.040;2023-02-26T09:44:44;97820.31;;;4.07;43.60
49297;BME280;35163;48.878;18.040;2023-02-26T09:47:20;97811.53;;;4.23;44.07
49297;BME280;35163;48.878;18.040;2023-02-26T09:53:25;97822.53;;;4.30;44.16
49297;BME280;35163;48.878;18.040;2023-02-26T09:56:03;97823.28;;;4.37;43.66
49297;BME280;35163;48.878;18.040;2023-02-26T09:58:33;97834.22;;;4.45;43.79
49297;BME280;35163;48.878;18.040;2023-02-26T10:04:07;97824.94;;;4.40;42.23
49297;BME280;35163;48.878;18.040;2023-02-26T10:09:28;97829.63;;;4.11;42.84
49297;BME280;35163;48.878;18.040;2023-02-26T10:12:13;97851.69;;;4.20;43.20
49297;BME280;35163;48.878;18.040;2023-02-26T10:17:33;97864.47;;;4.20;43.16
49297;BME280;35163;48.878;18.040;2023-02-26T10:20:05;97868.78;;;4.16;43.60
49297;BME280;35163;48.878;18.040;2023-02-26T10:22:59;97866.34;;;4.08;43.02
49297;BME280;35163;48.878;18.040;2023-02-26T10:25:36;97860.25;;;4.16;42.56
49297;BME280;35163;48.878;18.040;2023-02-26T10:30:45;97870.53;;;4.14;42.89
49297;BME280;35163;48.878;18.040;2023-02-26T10:33:28;97874.56;;;4.31;43.07
49297;BME280;35163;48.878;18.040;2023-02-26T10:36:09;97872.03;;;4.29;42.47
49297;BME280;35163;48.878;18.040;2023-02-26T10:38:41;97872.22;;;4.17;41.77
49297;BME280;35163;48.878;18.040;2023-02-26T10:41:13;97860.47;;;4.03;42.55
49297;BME280;35163;48.878;18.040;2023-02-26T10:43:43;97869.13;;;3.93;42.52
49297;BME280;35163;48.878;18.040;2023-02-26T10:51:39;97888.78;;;3.89;43.29
49297;BME280;35163;48.878;18.040;2023-02-26T10:54:14;97875.97;;;3.91;43.44
49297;BME280;35163;48.878;18.040;2023-02-26T10:56:42;97887.88;;;3.93;43.84
49297;BME280;35163;48.878;18.040;2023-02-26T10:59:08;97893.13;;;3.82;43.17
49297;BME280;35163;48.878;18.040;2023-02-26T11:01:35;97903.31;;;3.85;43.04
49297;BME280;35163;48.878;18.040;2023-02-26T11:04:11;97909.34;;;3.83;43.34
49297;BME280;35163;48.878;18.040;2023-02-26T11:06:50;97909.44;;;3.73;43.80
49297;BME280;35163;48.878;18.040;2023-02-26T11:11:52;97915.97;;;3.98;42.87
49297;BME280;35163;48.878;18.040;2023-02-26T11:14:21;97915.03;;;4.02;42.36
49297;BME280;35163;48.878;18.040;2023-02-26T11:16:54;97930.38;;;4.05;42.75
49297;BME280;35163;48.878;18.040;2023-02-26T11:19:29;97921.88;;;4.03;42.90
49297;BME280;35163;48.878;18.040;2023-02-26T11:21:57;97927.78;;;4.08;42.54
49297;BME280;35163;48.878;18.040;2023-02-26T11:24:30;97929.47;;;4.08;42.12
49297;BME280;35163;48.878;18.040;2023-02-26T11:27:00;97924.09;;;4.27;44.65
49297;BME280;35163;48.878;18.040;2023-02-26T11:29:41;97941.94;;;4.34;44.13
49297;BME280;35163;48.878;18.040;2023-02-26T11:32:18;97927.31;;;4.40;42.79
49297;BME280;35163;48.878;18.040;2023-02-26T11:34:46;97934.94;;;4.46;42.50
49297;BME280;35163;48.878;18.040;2023-02-26T11:37:23;97933.19;;;4.49;41.03
49297;BME280;35163;48.878;18.040;2023-02-26T11:39:59;97936.44;;;4.59;41.57
49297;BME280;35163;48.878;18.040;2023-02-26T11:42:29;97944.06;;;4.64;40.81
49297;BME280;35163;48.878;18.040;2023-02-26T11:45:00;97941.47;;;4.66;41.95
49297;BME280;35163;48.878;18.040;2023-02-26T11:47:29;97952.44;;;4.76;42.70
49297;BME280;35163;48.878;18.040;2023-02-26T11:50:01;97944.69;;;4.80;41.54
49297;BME280;35163;48.878;18.040;2023-02-26T11:52:39;97956.88;;;4.62;40.73
49297;BME280;35163;48.878;18.040;2023-02-26T11:55:29;97950.94;;;4.60;40.18
49297;BME280;35163;48.878;18.040;2023-02-26T11:57:57;97951.09;;;4.49;41.11
49297;BME280;35163;48.878;18.040;2023-02-26T12:00:45;97957.78;;;4.60;40.74
49297;BME280;35163;48.878;18.040;2023-02-26T12:03:20;97955.06;;;4.69;40.53
49297;BME280;35163;48.878;18.040;2023-02-26T12:05:49;97951.63;;;4.72;40.99
49297;BME280;35163;48.878;18.040;2023-02-26T12:08:24;97957.50;;;4.80;40.81
49297;BME280;35163;48.878;18.040;2023-02-26T12:11:01;97964.28;;;4.81;40.48
49297;BME280;35163;48.878;18.040;2023-02-26T12:27:15;97975.47;;;4.77;43.14
49297;BME280;35163;48.878;18.040;2023-02-26T12:37:56;97984.09;;;4.70;48.22
49297;BME280;35163;48.878;18.040;2023-02-26T12:40:30;97981.78;;;4.53;46.38
49297;BME280;35163;48.878;18.040;2023-02-26T12:43:18;97979.38;;;4.42;47.73
49297;BME280;35163;48.878;18.040;2023-02-26T12:49:01;97989.69;;;4.35;48.02
49297;BME280;35163;48.878;18.040;2023-02-26T12:57:40;98008.72;;;4.14;48.09
49297;BME280;35163;48.878;18.040;2023-02-26T13:07:55;98003.00;;;3.92;45.95
49297;BME280;35163;48.878;18.040;2023-02-26T13:21:26;98010.59;;;4.01;44.67
49297;BME280;35163;48.878;18.040;2023-02-26T13:24:20;98021.69;;;3.98;45.23
49297;BME280;35163;48.878;18.040;2023-02-26T13:26:49;98015.75;;;3.98;44.89
49297;BME280;35163;48.878;18.040;2023-02-26T13:29:21;98008.03;;;3.99;45.13
49297;BME280;35163;48.878;18.040;2023-02-26T13:31:55;98025.09;;;3.99;43.89
49297;BME280;35163;48.878;18.040;2023-02-26T13:37:13;98029.31;;;4.03;43.21
49297;BME280;35163;48.878;18.040;2023-02-26T13:40:03;98010.53;;;4.04;43.36
49297;BME280;35163;48.878;18.040;2023-02-26T13:43:33;98025.06;;;4.00;42.90
49297;BME280;35163;48.878;18.040;2023-02-26T13:51:28;98032.59;;;4.16;43.96
49297;BME280;35163;48.878;18.040;2023-02-26T13:54:00;98034.41;;;4.06;43.30
49297;BME280;35163;48.878;18.040;2023-02-26T14:01:56;98046.38;;;4.04;43.93
49297;BME280;35163;48.878;18.040;2023-02-26T14:04:27;98043.00;;;3.99;43.48
49297;BME280;35163;48.878;18.040;2023-02-26T14:07:13;98053.28;;;3.96;43.32
49297;BME280;35163;48.878;18.040;2023-02-26T14:09:53;98064.34;;;3.98;42.95
49297;BME280;35163;48.878;18.040;2023-02-26T14:12:24;98054.16;;;3.95;43.26
49297;BME280;35163;48.878;18.040;2023-02-26T14:17:49;98048.81;;;4.15;44.30
49297;BME280;35163;48.878;18.040;2023-02-26T14:20:27;98037.72;;;4.15;44.19
49297;BME280;35163;48.878;18.040;2023-02-26T14:25:44;98052.19;;;4.19;43.81
49297;BME280;35163;48.878;18.040;2023-02-26T14:30:49;98058.22;;;4.11;44.22
49297;BME280;35163;48.878;18.040;2023-02-26T14:33:18;98063.44;;;4.05;43.85
49297;BME280;35163;48.878;18.040;2023-02-26T14:35:47;98074.56;;;3.99;43.48
49297;BME280;35163;48.878;18.040;2023-02-26T14:38:30;98070.47;;;3.81;43.82
49297;BME280;35163;48.878;18.040;2023-02-26T14:41:05;98064.38;;;3.92;44.59
49297;BME280;35163;48.878;18.040;2023-02-26T14:43:39;98077.25;;;3.85;44.90
49297;BME280;35163;48.878;18.040;2023-02-26T14:46:08;98072.09;;;3.88;45.19
49297;BME280;35163;48.878;18.040;2023-02-26T14:48:36;98078.97;;;3.83;45.36
49297;BME280;35163;48.878;18.040;2023-02-26T14:56:56;98100.56;;;3.51;45.56
49297;BME280;35163;48.878;18.040;2023-02-26T15:23:42;98111.69;;;3.48;44.47
49297;BME280;35163;48.878;18.040;2023-02-26T15:26:17;98115.19;;;3.35;44.11
49297;BME280;35163;48.878;18.040;2023-02-26T15:28:44;98117.81;;;3.24;44.34
49297;BME280;35163;48.878;18.040;2023-02-26T15:31:11;98112.72;;;3.19;44.79
49297;BME280;35163;48.878;18.040;2023-02-26T15:33:39;98123.78;;;3.21;44.69
49297;BME280;35163;48.878;18.040;2023-02-26T15:36:11;98123.75;;;3.29;44.20
49297;BME280;35163;48.878;18.040;2023-02-26T15:38:52;98129.72;;;3.25;44.88
49297;BME280;35163;48.878;18.040;2023-02-26T15:41:19;98131.44;;;3.26;44.75
49297;BME280;35163;48.878;18.040;2023-02-26T15:43:53;98132.31;;;3.19;44.73
49297;BME280;35163;48.878;18.040;2023-02-26T15:46:29;98130.63;;;3.16;45.05
49297;BME280;35163;48.878;18.040;2023-02-26T15:49:01;98128.97;;;3.10;45.89
49297;BME280;35163;48.878;18.040;2023-02-26T15:51:31;98131.56;;;3.01;45.47
49297;BME280;35163;48.878;18.040;2023-02-26T15:53:58;98136.66;;;3.02;45.45
49297;BME280;35163;48.878;18.040;2023-02-26T15:56:31;98140.91;;;3.07;45.03
49297;BME280;35163;48.878;18.040;2023-02-26T15:59:02;98146.00;;;3.07;45.13
49297;BME280;35163;48.878;18.040;2023-02-26T16:01:32;98141.78;;;3.06;44.47
49297;BME280;35163;48.878;18.040;2023-02-26T16:04:06;98149.38;;;3.12;48.22
49297;BME280;35163;48.878;18.040;2023-02-26T16:06:40;98157.84;;;3.22;47.22